Time;durP1;ratioP1;P1;durP2;ratioP2;P2;SDS_P1;SDS_P2;PMS_P1;PMS_P2;Temp;Humidity;BMP_temperature;BMP_pressure;BME280_temperature;BME280_humidity;BME280_pressure;Samples;Min_cycle;Max_cycle;Signal;HPM_P1;HPM_P2
2022/02/27 00:01:50;;;;;;;2.02;1.37;;;;;;;15.65;49.34;101102.85;1847603;76;21476;-70
2022/02/27 00:04:18;;;;;;;1.92;1.65;;;;;;;15.63;49.36;101103.02;1847704;77;21060;-70
2022/02/27 00:06:44;;;;;;;2.08;1.85;;;;;;;15.62;49.38;101104.52;1847927;77;22012;-70
2022/02/27 00:09:11;;;;;;;2.30;2.00;;;;;;;15.61;49.38;101106.36;1814725;79;21021;-71
2022/02/27 00:11:37;;;;;;;2.37;2.10;;;;;;;15.60;49.39;101107.86;1776088;80;22430;-70
2022/02/27 00:14:04;;;;;;;1.92;1.50;;;;;;;15.60;49.42;101109.20;1775767;80;21062;-69
2022/02/27 00:16:33;;;;;;;1.70;1.60;;;;;;;15.58;49.44;101115.23;1746862;80;21034;-70
2022/02/27 00:19:02;;;;;;;2.58;1.87;;;;;;;15.57;49.43;101113.55;1801012;79;21056;-71
2022/02/27 00:21:28;;;;;;;2.42;1.95;;;;;;;15.56;49.42;101110.55;1806035;79;21074;-70
2022/02/27 00:23:54;;;;;;;2.15;1.95;;;;;;;15.56;49.45;101112.72;1769458;81;21116;-69
2022/02/27 00:26:21;;;;;;;2.00;1.80;;;;;;;15.54;49.45;101116.06;1840778;78;21074;-70
2022/02/27 00:28:47;;;;;;;2.50;1.92;;;;;;;15.53;49.46;101111.22;1769516;81;21562;-71
2022/02/27 00:31:13;;;;;;;2.20;1.57;;;;;;;15.52;49.47;101111.37;1840692;78;21074;-70
2022/02/27 00:33:40;;;;;;;1.70;1.55;;;;;;;15.50;49.47;101106.19;1840834;78;21569;-70
2022/02/27 00:36:06;;;;;;;1.70;1.40;;;;;;;15.49;49.49;101105.87;1835500;78;21108;-71
2022/02/27 00:38:33;;;;;;;2.55;1.80;;;;;;;15.48;49.50;101107.36;1847139;77;21061;-71
2022/02/27 00:41:00;;;;;;;2.30;1.80;;;;;;;15.47;49.51;101110.55;1775415;80;21054;-72
2022/02/27 00:43:28;;;;;;;1.90;1.80;;;;;;;15.46;49.48;101109.38;1847296;77;21037;-71
2022/02/27 00:45:54;;;;;;;2.62;1.90;;;;;;;15.45;49.53;101112.56;1850927;77;21018;-71
2022/02/27 00:48:21;;;;;;;1.65;1.45;;;;;;;15.43;49.54;101105.20;1781146;80;21114;-70
2022/02/27 00:50:47;;;;;;;1.87;1.42;;;;;;;15.42;49.56;101107.53;1796317;79;21049;-71
2022/02/27 00:53:13;;;;;;;1.82;1.57;;;;;;;15.41;49.54;101107.17;1781054;80;21067;-70
2022/02/27 00:55:41;;;;;;;1.67;1.50;;;;;;;15.41;49.56;101105.84;1851649;77;21001;-70
2022/02/27 00:58:07;;;;;;;1.60;1.50;;;;;;;15.39;49.57;101101.16;1851514;77;21572;-71
2022/02/27 01:00:34;;;;;;;2.37;1.80;;;;;;;15.38;49.58;101099.50;1851846;77;22451;-71
2022/02/27 01:03:01;;;;;;;1.85;1.45;;;;;;;15.37;49.58;101100.99;1851198;77;21021;-71
2022/02/27 01:05:27;;;;;;;1.90;1.60;;;;;;;15.35;49.60;101099.81;1851612;77;21076;-70
2022/02/27 01:07:54;;;;;;;1.87;1.55;;;;;;;15.34;49.61;101103.00;1853075;77;20970;-70
2022/02/27 01:10:20;;;;;;;2.33;1.52;;;;;;;15.33;49.63;101099.97;1853903;77;21041;-70
2022/02/27 01:12:47;;;;;;;2.20;1.65;;;;;;;15.33;49.62;101101.82;1847394;77;21867;-70
2022/02/27 01:15:13;;;;;;;1.92;1.45;;;;;;;15.32;49.64;101102.84;1847484;77;21049;-71
2022/02/27 01:17:40;;;;;;;1.90;1.70;;;;;;;15.31;49.66;101103.83;1775686;80;21054;-71
2022/02/27 01:20:10;;;;;;;2.27;1.75;;;;;;;15.29;49.65;101101.82;1847191;77;21530;-70
2022/02/27 01:22:36;;;;;;;2.00;1.52;;;;;;;15.27;49.65;101104.66;1772889;80;22149;-70
2022/02/27 01:25:05;;;;;;;2.08;1.70;;;;;;;15.27;49.67;101097.14;1788426;79;21057;-69
2022/02/27 01:27:32;;;;;;;1.70;1.47;;;;;;;15.26;49.69;101098.98;1813713;79;21416;-71
2022/02/27 01:30:00;;;;;;;2.02;1.52;;;;;;;15.25;49.68;101092.45;1809397;79;21053;-70
2022/02/27 01:32:27;;;;;;;2.20;2.00;;;;;;;15.24;49.71;101094.78;1740791;82;21538;-71
2022/02/27 01:34:54;;;;;;;2.50;2.05;;;;;;;15.22;49.70;101093.63;1809439;79;21030;-70
2022/02/27 01:37:21;;;;;;;2.08;1.87;;;;;;;15.20;49.71;101090.28;1740504;82;21151;-71
2022/02/27 01:39:48;;;;;;;2.52;1.80;;;;;;;15.20;49.72;101084.07;1809352;79;21022;-71
2022/02/27 01:42:16;;;;;;;2.05;1.70;;;;;;;15.18;49.73;101088.75;1809356;79;20987;-70
2022/02/27 01:44:43;;;;;;;1.77;1.62;;;;;;;15.17;49.76;101081.74;1823223;77;21529;-71
2022/02/27 01:47:12;;;;;;;2.15;1.72;;;;;;;15.16;49.75;101082.73;1769498;81;21062;-71
2022/02/27 01:49:47;;;;;;;1.90;1.70;;;;;;;15.14;49.78;101082.41;1844022;77;21052;-70
2022/02/27 01:52:14;;;;;;;2.35;1.75;;;;;;;15.13;49.76;101082.06;1773159;80;20990;-71
2022/02/27 01:54:42;;;;;;;3.37;1.72;;;;;;;15.12;49.76;101083.55;1802937;79;21491;-71
2022/02/27 01:57:10;;;;;;;3.90;2.27;;;;;;;15.10;49.79;101081.07;1802778;79;21218;-71
2022/02/27 01:59:39;;;;;;;2.22;1.82;;;;;;;15.09;49.82;101077.22;1803092;79;21542;-70
2022/02/27 02:02:06;;;;;;;1.92;1.47;;;;;;;15.08;49.82;101075.52;1801630;79;23284;-71
2022/02/27 02:04:33;;;;;;;3.08;1.75;;;;;;;15.08;49.84;101079.54;1802561;79;21021;-70
2022/02/27 02:07:00;;;;;;;2.87;1.77;;;;;;;15.06;49.84;101081.55;1816163;79;21002;-70
2022/02/27 02:09:28;;;;;;;2.00;1.75;;;;;;;15.05;49.86;101084.73;1856580;77;21052;-70
2022/02/27 02:11:54;;;;;;;2.17;1.98;;;;;;;15.05;49.85;101078.55;1823810;77;21500;-69
2022/02/27 02:14:22;;;;;;;2.55;1.80;;;;;;;15.02;49.86;101078.36;1856752;77;21548;-70
2022/02/27 02:16:52;;;;;;;2.90;1.77;;;;;;;15.02;49.87;101083.70;1856557;77;21033;-71
2022/02/27 02:19:21;;;;;;;2.37;1.52;;;;;;;15.01;49.88;101086.06;1848602;77;21010;-71
2022/02/27 02:21:54;;;;;;;2.60;1.82;;;;;;;15.00;49.90;101080.36;1775747;80;21041;-71
2022/02/27 02:24:21;;;;;;;3.15;2.15;;;;;;;14.99;49.89;101085.88;1856955;77;21694;-70
2022/02/27 02:26:48;;;;;;;2.45;1.90;;;;;;;14.98;49.89;101084.22;1854258;77;21077;-70
2022/02/27 02:29:17;;;;;;;2.52;1.90;;;;;;;14.97;49.91;101091.89;1849944;77;21014;-69
2022/02/27 02:31:45;;;;;;;2.00;1.55;;;;;;;14.96;49.92;101089.72;1850524;77;21079;-70
2022/02/27 02:34:17;;;;;;;2.90;2.08;;;;;;;14.93;49.94;101088.70;1857127;77;21037;-69
2022/02/27 02:36:45;;;;;;;1.95;1.65;;;;;;;14.93;49.94;101087.36;1805491;78;20994;-70
2022/02/27 02:39:16;;;;;;;2.05;1.72;;;;;;;14.91;49.97;101088.89;1840212;78;21196;-71
2022/02/27 02:41:43;;;;;;;2.10;1.70;;;;;;;14.90;49.96;101095.23;1839983;77;20975;-72
2022/02/27 02:44:12;;;;;;;2.80;1.72;;;;;;;14.88;49.97;101094.55;1839796;78;21053;-70
2022/02/27 02:46:39;;;;;;;2.50;2.08;;;;;;;14.89;49.97;101095.38;1836190;78;21510;-70
2022/02/27 02:49:07;;;;;;;1.72;1.50;;;;;;;14.87;49.98;101094.23;1834214;78;21482;-70
2022/02/27 02:51:35;;;;;;;2.08;1.67;;;;;;;14.86;49.99;101096.55;1827429;76;22933;-70
2022/02/27 02:54:03;;;;;;;2.98;1.85;;;;;;;14.85;50.00;101092.19;1837040;77;21014;-70
2022/02/27 02:56:29;;;;;;;3.08;1.80;;;;;;;14.84;50.02;101096.39;1839783;78;21009;-70
2022/02/27 03:00:42;;;;;;;2.45;2.25;;;;;;;14.87;50.05;101102.27;1870380;76;28472;-71
2022/02/27 03:03:09;;;;;;;2.27;1.87;;;;;;;14.82;50.02;101102.41;1826663;78;21006;-70
2022/02/27 03:05:35;;;;;;;2.00;1.80;;;;;;;14.82;50.03;101103.75;1826628;78;21130;-70
2022/02/27 03:08:02;;;;;;;2.25;1.80;;;;;;;14.81;50.03;101103.39;1826478;78;21029;-71
2022/02/27 03:10:30;;;;;;;2.85;2.10;;;;;;;14.80;50.04;101103.07;1803520;77;20972;-69
2022/02/27 03:12:57;;;;;;;2.12;1.67;;;;;;;14.79;50.05;101113.42;1794178;80;21004;-72
2022/02/27 03:15:23;;;;;;;2.60;2.40;;;;;;;14.78;50.05;101111.77;1793995;80;21021;-70
2022/02/27 03:17:49;;;;;;;3.05;1.72;;;;;;;14.77;50.06;101122.11;1794386;80;21117;-70
2022/02/27 03:20:16;;;;;;;3.02;2.00;;;;;;;14.75;50.06;101115.07;1793874;80;20918;-70
2022/02/27 03:22:42;;;;;;;2.62;1.80;;;;;;;14.75;50.06;101118.25;1820031;78;21013;-70
2022/02/27 03:25:10;;;;;;;2.20;1.80;;;;;;;14.74;50.09;101124.11;1826385;78;21017;-70
2022/02/27 03:27:36;;;;;;;3.10;1.80;;;;;;;14.73;50.11;101123.76;1802831;78;21493;-71
2022/02/27 03:30:04;;;;;;;2.45;2.10;;;;;;;14.73;50.10;101125.61;1794065;80;21135;-71
2022/02/27 03:32:30;;;;;;;3.30;1.75;;;;;;;14.72;50.13;101122.10;1832008;77;21002;-69
2022/02/27 03:34:57;;;;;;;2.50;1.82;;;;;;;14.71;50.14;101129.77;1842284;77;21020;-71
2022/02/27 03:37:23;;;;;;;2.60;2.00;;;;;;;14.70;50.12;101134.80;1836467;77;21087;-71
2022/02/27 03:39:50;;;;;;;2.80;2.08;;;;;;;14.70;50.14;101129.95;1852117;77;20970;-71
2022/02/27 03:42:16;;;;;;;1.82;1.65;;;;;;;14.70;50.14;101134.80;1852281;77;21084;-70
2022/02/27 03:44:42;;;;;;;2.10;1.85;;;;;;;14.69;50.16;101140.30;1804905;77;21068;-71
2022/02/27 03:47:09;;;;;;;2.10;1.82;;;;;;;14.68;50.15;101141.28;1794392;80;21041;-71
2022/02/27 03:49:35;;;;;;;3.33;2.10;;;;;;;14.67;50.17;101143.64;1793946;80;20993;-71
2022/02/27 03:52:03;;;;;;;2.85;2.05;;;;;;;14.67;50.18;101143.64;1806373;78;20991;-71
2022/02/27 03:54:30;;;;;;;3.05;1.95;;;;;;;14.67;50.19;101151.66;1826485;78;21108;-70
2022/02/27 03:56:57;;;;;;;1.70;1.50;;;;;;;14.65;50.20;101145.13;1826525;78;21018;-70
2022/02/27 03:59:23;;;;;;;2.25;2.05;;;;;;;14.65;50.18;101144.30;1822710;78;21083;-71
2022/02/27 04:01:49;;;;;;;2.25;1.87;;;;;;;14.64;50.19;101143.95;1787901;79;21089;-71
2022/02/27 04:04:16;;;;;;;2.52;1.90;;;;;;;14.64;50.19;101149.30;1783209;79;21490;-70
2022/02/27 04:06:42;;;;;;;1.60;1.50;;;;;;;14.64;50.20;101154.64;1783271;79;21098;-70
2022/02/27 04:09:09;;;;;;;1.75;1.65;;;;;;;14.63;50.21;101151.65;1785399;79;21023;-70
2022/02/27 04:11:36;;;;;;;3.87;2.50;;;;;;;14.62;50.21;101157.98;1814782;78;20998;-70
2022/02/27 04:14:02;;;;;;;2.98;2.10;;;;;;;14.61;50.22;101150.47;1814669;79;21559;-70
2022/02/27 04:16:28;;;;;;;2.67;1.82;;;;;;;14.61;50.22;101155.81;1815025;79;21010;-71
2022/02/27 04:18:55;;;;;;;2.37;2.02;;;;;;;14.60;50.23;101159.47;1786522;79;21565;-71
2022/02/27 04:21:21;;;;;;;2.83;2.00;;;;;;;14.60;50.23;101164.81;1790072;78;21002;-70
2022/02/27 04:23:48;;;;;;;2.90;2.40;;;;;;;14.60;50.24;101162.66;1814669;79;21022;-70
2022/02/27 04:26:14;;;;;;;2.77;1.90;;;;;;;14.60;50.24;101168.00;1814724;79;20975;-71
2022/02/27 04:28:40;;;;;;;2.70;2.12;;;;;;;14.58;50.24;101166.81;1814730;78;21065;-72
2022/02/27 04:31:07;;;;;;;2.42;2.00;;;;;;;14.57;50.24;101163.82;1814894;78;21079;-70
2022/02/27 04:33:33;;;;;;;3.80;2.05;;;;;;;14.58;50.24;101171.34;1814560;79;21002;-70
2022/02/27 04:36:00;;;;;;;2.40;2.00;;;;;;;14.57;50.25;101175.86;1785176;79;20995;-71
2022/02/27 04:38:27;;;;;;;2.40;2.05;;;;;;;14.57;50.25;101178.53;1825034;78;21014;-71
2022/02/27 04:40:53;;;;;;;3.00;2.15;;;;;;;14.57;50.27;101184.38;1782633;79;21077;-71
2022/02/27 04:43:20;;;;;;;3.00;2.20;;;;;;;14.55;50.26;101181.33;1830069;78;21061;-71
2022/02/27 04:45:46;;;;;;;2.72;2.05;;;;;;;14.55;50.26;101185.34;1814568;79;21708;-71
2022/02/27 04:48:12;;;;;;;3.52;1.95;;;;;;;14.55;50.26;101185.84;1814598;78;21061;-71
2022/02/27 04:50:39;;;;;;;4.28;2.42;;;;;;;14.55;50.27;101185.84;1814771;78;21008;-71
2022/02/27 04:53:05;;;;;;;2.47;2.02;;;;;;;14.54;50.28;101188.16;1784474;78;21108;-71
2022/02/27 04:55:31;;;;;;;2.67;2.30;;;;;;;14.54;50.29;101186.35;1782672;79;21882;-71
2022/02/27 04:57:58;;;;;;;2.20;2.00;;;;;;;14.53;50.29;101179.81;1782652;79;20992;-71
2022/02/27 05:00:24;;;;;;;4.42;2.15;;;;;;;14.53;50.28;101190.01;1789387;79;21002;-70
2022/02/27 05:02:51;;;;;;;3.05;2.05;;;;;;;14.53;50.29;101190.52;1793698;80;21679;-71
2022/02/27 05:05:17;;;;;;;2.37;1.90;;;;;;;14.52;50.29;101186.14;1793656;79;21061;-72
2022/02/27 05:07:44;;;;;;;2.95;2.05;;;;;;;14.51;50.31;101187.16;1793577;79;21140;-71
2022/02/27 05:10:11;;;;;;;2.35;2.12;;;;;;;14.51;50.30;101190.66;1824822;78;21009;-70
2022/02/27 05:12:39;;;;;;;2.17;1.92;;;;;;;14.50;50.29;101187.64;1826182;78;21048;-71
2022/02/27 05:15:07;;;;;;;2.80;2.05;;;;;;;14.51;50.30;101192.51;1826177;78;21001;-70
2022/02/27 05:17:35;;;;;;;2.65;2.05;;;;;;;14.50;50.32;101190.31;1808235;78;21532;-71
2022/02/27 05:20:03;;;;;;;2.90;2.05;;;;;;;14.49;50.32;101187.31;1825964;78;21057;-70
2022/02/27 05:22:30;;;;;;;2.22;1.72;;;;;;;14.49;50.31;101183.30;1826424;77;21002;-73
2022/02/27 05:24:56;;;;;;;2.40;2.00;;;;;;;14.49;50.31;101192.66;1824929;78;21532;-72
2022/02/27 05:27:23;;;;;;;2.22;2.02;;;;;;;14.49;50.31;101191.83;1793889;79;21021;-71
2022/02/27 05:29:49;;;;;;;2.47;2.00;;;;;;;14.49;50.31;101183.81;1793856;80;21556;-70
2022/02/27 05:32:15;;;;;;;2.55;2.20;;;;;;;14.48;50.33;101187.47;1793491;80;21115;-71
2022/02/27 05:34:42;;;;;;;3.02;1.90;;;;;;;14.48;50.33;101192.81;1793684;80;21466;-70
2022/02/27 05:37:08;;;;;;;2.85;2.27;;;;;;;14.48;50.34;101187.47;1793612;80;21041;-71
2022/02/27 05:39:34;;;;;;;2.47;1.80;;;;;;;14.48;50.33;101190.14;1793830;79;21502;-71
2022/02/27 05:42:01;;;;;;;2.40;2.00;;;;;;;14.48;50.33;101184.79;1799769;77;21038;-71
2022/02/27 05:44:27;;;;;;;3.30;2.12;;;;;;;14.49;50.33;101189.16;1836019;77;21122;-71
2022/02/27 05:46:54;;;;;;;2.60;2.10;;;;;;;14.47;50.33;101181.28;1825975;78;21016;-70
2022/02/27 05:49:20;;;;;;;2.00;1.67;;;;;;;14.48;50.32;101187.47;1838621;77;21537;-71
2022/02/27 05:51:47;;;;;;;2.83;1.87;;;;;;;14.49;50.32;101186.48;1826031;78;21007;-71
2022/02/27 05:54:14;;;;;;;2.12;1.90;;;;;;;14.48;50.33;101189.63;1826134;78;21064;-71
2022/02/27 05:56:40;;;;;;;3.15;2.02;;;;;;;14.48;50.33;101190.14;1826009;78;21125;-71
2022/02/27 05:59:07;;;;;;;2.02;1.82;;;;;;;14.48;50.33;101192.30;1821215;78;21056;-70
2022/02/27 06:01:33;;;;;;;2.95;1.87;;;;;;;14.49;50.32;101200.69;1793545;79;21508;-70
2022/02/27 06:04:01;;;;;;;2.80;1.87;;;;;;;14.49;50.32;101196.67;1793560;80;21025;-71
2022/02/27 06:06:27;;;;;;;2.83;2.20;;;;;;;14.49;50.31;101201.19;1793672;79;21068;-70
2022/02/27 06:08:55;;;;;;;2.80;1.95;;;;;;;14.50;50.31;101201.52;1793672;79;21929;-71
2022/02/27 06:11:21;;;;;;;2.58;1.85;;;;;;;14.50;50.31;101204.19;1809649;78;21494;-71
2022/02/27 06:13:47;;;;;;;1.82;1.57;;;;;;;14.49;50.30;101200.69;1826077;78;21005;-70
2022/02/27 06:16:14;;;;;;;3.52;2.27;;;;;;;14.50;50.30;101203.68;1819971;78;21104;-71
2022/02/27 06:18:40;;;;;;;2.40;1.75;;;;;;;14.51;50.29;101203.20;1806226;78;21005;-71
2022/02/27 06:21:07;;;;;;;2.37;1.90;;;;;;;14.51;50.30;101201.87;1827981;77;21175;-71
2022/02/27 06:23:33;;;;;;;2.70;2.10;;;;;;;14.53;50.29;101206.55;1859617;77;20994;-70
2022/02/27 06:25:59;;;;;;;3.05;2.30;;;;;;;14.53;50.28;101203.88;1829164;76;21052;-71
2022/02/27 06:28:26;;;;;;;2.58;1.87;;;;;;;14.53;50.25;101215.41;1826391;78;21049;-71
2022/02/27 06:30:52;;;;;;;2.22;2.02;;;;;;;14.53;50.25;101209.23;1826327;78;21537;-71
2022/02/27 06:33:19;;;;;;;3.22;2.42;;;;;;;14.54;50.23;101208.22;1819124;78;21079;-70
2022/02/27 06:35:45;;;;;;;3.05;2.10;;;;;;;14.54;50.23;101208.22;1793630;80;21475;-72
2022/02/27 06:38:13;;;;;;;2.30;1.80;;;;;;;14.54;50.24;101211.75;1823715;78;21476;-72
2022/02/27 06:40:40;;;;;;;2.83;2.17;;;;;;;14.54;50.22;101210.41;1826005;78;21045;-70
2022/02/27 06:43:07;;;;;;;2.10;1.90;;;;;;;14.55;50.22;101209.91;1825808;78;20966;-70
2022/02/27 06:45:34;;;;;;;2.80;2.02;;;;;;;14.55;50.21;101209.91;1826001;78;21131;-70
2022/02/27 06:48:01;;;;;;;2.58;2.08;;;;;;;14.55;50.20;101213.41;1834364;77;20989;-70
2022/02/27 06:50:27;;;;;;;2.00;1.75;;;;;;;14.55;50.18;101220.09;1821229;77;21081;-71
2022/02/27 06:52:53;;;;;;;2.17;1.50;;;;;;;14.56;50.20;101218.26;1810576;77;21537;-71
2022/02/27 06:55:20;;;;;;;2.27;1.75;;;;;;;14.56;50.18;101218.26;1834541;77;21026;-70
2022/02/27 06:57:47;;;;;;;2.80;2.22;;;;;;;14.57;50.20;101219.16;1826204;78;21980;-70
2022/02/27 07:00:15;;;;;;;2.42;1.80;;;;;;;14.58;50.20;101214.13;1825733;78;20989;-70
2022/02/27 07:02:43;;;;;;;1.95;1.77;;;;;;;14.59;50.19;101222.00;1826001;78;21021;-70
2022/02/27 07:05:10;;;;;;;2.80;2.20;;;;;;;14.60;50.19;101222.83;1825908;78;21039;-71
2022/02/27 07:07:36;;;;;;;2.83;2.10;;;;;;;14.60;50.19;101222.83;1814779;78;20985;-70
2022/02/27 07:10:04;;;;;;;2.87;1.70;;;;;;;14.61;50.21;101221.84;1793404;79;21088;-71
2022/02/27 07:12:33;;;;;;;2.52;2.02;;;;;;;14.62;50.22;101221.69;1824907;78;21002;-72
2022/02/27 07:14:59;;;;;;;2.47;1.92;;;;;;;14.64;50.21;101222.84;1826280;78;21490;-71
2022/02/27 07:17:26;;;;;;;2.27;2.00;;;;;;;14.64;50.18;101221.03;1826097;78;21009;-70
2022/02/27 07:19:52;;;;;;;2.15;1.80;;;;;;;14.66;50.18;101224.86;1825614;78;20990;-70
2022/02/27 07:22:19;;;;;;;3.67;2.10;;;;;;;14.67;50.17;101221.20;1824199;78;21131;-71
2022/02/27 07:24:47;;;;;;;3.65;2.10;;;;;;;14.69;50.16;101218.70;1811811;78;21021;-71
2022/02/27 07:27:14;;;;;;;2.72;2.10;;;;;;;14.70;50.18;101218.22;1793519;79;21533;-70
2022/02/27 07:29:41;;;;;;;2.30;1.92;;;;;;;14.71;50.15;101221.22;1793721;80;20994;-70
2022/02/27 07:32:11;;;;;;;1.92;1.62;;;;;;;14.72;50.14;101221.58;1811645;78;21568;-70
2022/02/27 07:34:38;;;;;;;1.85;1.55;;;;;;;14.74;50.18;101215.56;1826255;78;21079;-71
2022/02/27 07:37:07;;;;;;;1.85;1.60;;;;;;;14.75;50.15;101221.23;1817627;78;21124;-71
2022/02/27 07:39:33;;;;;;;3.50;1.65;;;;;;;14.75;50.17;101216.72;1812666;78;21002;-71
2022/02/27 07:41:59;;;;;;;2.52;2.10;;;;;;;14.77;50.17;101213.89;1810099;78;21020;-72
2022/02/27 07:44:27;;;;;;;2.45;1.85;;;;;;;14.79;50.16;101214.56;1826104;78;21042;-70
2022/02/27 07:46:54;;;;;;;2.37;2.00;;;;;;;14.80;50.16;101211.42;1826216;78;21107;-71
2022/02/27 07:49:21;;;;;;;2.17;1.77;;;;;;;14.82;50.15;101212.92;1825977;78;21486;-71
2022/02/27 07:51:48;;;;;;;1.60;1.50;;;;;;;14.84;50.16;101210.92;1827603;77;20975;-70
2022/02/27 07:54:14;;;;;;;1.70;1.45;;;;;;;14.86;50.14;101206.76;1837109;77;21027;-71
2022/02/27 07:56:41;;;;;;;2.05;1.70;;;;;;;14.88;50.14;101208.77;1793703;80;21025;-71
2022/02/27 07:59:07;;;;;;;2.02;1.50;;;;;;;14.89;50.15;101212.63;1812356;77;21124;-70
2022/02/27 08:01:34;;;;;;;2.65;2.00;;;;;;;14.91;50.14;101213.31;1826081;77;21597;-71
2022/02/27 08:04:00;;;;;;;2.22;1.60;;;;;;;14.94;50.13;101213.48;1820638;78;21002;-71
2022/02/27 08:06:27;;;;;;;1.90;1.50;;;;;;;14.96;50.10;101211.48;1820560;77;21034;-71
2022/02/27 08:08:55;;;;;;;2.62;1.60;;;;;;;14.97;50.10;101205.14;1820661;78;21060;-70
2022/02/27 08:11:21;;;;;;;2.05;1.60;;;;;;;15.00;50.05;101206.14;1802256;78;21179;-70
2022/02/27 08:13:48;;;;;;;2.08;1.75;;;;;;;15.03;50.03;101199.64;1820526;78;20986;-72
2022/02/27 08:16:14;;;;;;;2.92;1.77;;;;;;;15.05;50.02;101206.50;1801043;78;21006;-71
2022/02/27 08:18:42;;;;;;;2.20;1.75;;;;;;;15.07;50.01;101209.85;1788729;79;21037;-71
2022/02/27 08:21:08;;;;;;;1.98;1.70;;;;;;;15.10;50.02;101206.00;1782475;78;20995;-72
2022/02/27 08:23:35;;;;;;;1.80;1.65;;;;;;;15.12;50.01;101209.36;1819291;78;21135;-71
2022/02/27 08:26:01;;;;;;;1.85;1.60;;;;;;;15.14;49.98;101202.86;1814355;79;21047;-72
2022/02/27 08:28:29;;;;;;;1.82;1.50;;;;;;;15.17;49.95;101202.20;1792239;78;21536;-71
2022/02/27 08:30:59;;;;;;;1.80;1.50;;;;;;;15.19;49.95;101206.88;1820702;77;21557;-71
2022/02/27 08:33:25;;;;;;;1.65;1.20;;;;;;;15.21;49.90;101197.68;1818631;78;21013;-71
2022/02/27 08:35:52;;;;;;;1.70;1.60;;;;;;;15.23;49.90;101194.34;1815443;78;21129;-71
2022/02/27 08:38:21;;;;;;;2.15;1.87;;;;;;;15.26;49.93;101190.01;1817889;78;21536;-71
2022/02/27 08:40:48;;;;;;;1.92;1.55;;;;;;;15.29;50.05;101189.66;1815879;78;21046;-72
2022/02/27 08:43:15;;;;;;;1.52;1.42;;;;;;;15.33;50.18;101192.85;1786065;78;21025;-71
2022/02/27 08:45:42;;;;;;;2.05;1.67;;;;;;;15.37;50.18;101194.70;1820636;78;21046;-71
2022/02/27 08:48:10;;;;;;;1.90;1.65;;;;;;;15.40;50.15;101192.55;1820004;77;21017;-71
2022/02/27 08:50:36;;;;;;;1.57;1.47;;;;;;;15.44;50.14;101191.20;1812501;77;21024;-71
2022/02/27 08:53:03;;;;;;;1.80;1.42;;;;;;;15.48;50.13;101189.87;1801719;78;21281;-70
2022/02/27 08:55:29;;;;;;;1.85;1.52;;;;;;;15.52;50.15;101189.87;1818887;78;21001;-71
2022/02/27 08:57:56;;;;;;;1.77;1.50;;;;;;;15.58;50.01;101180.34;1818482;78;21068;-71
2022/02/27 09:00:22;;;;;;;1.32;1.22;;;;;;;15.62;49.88;101190.23;1821342;77;21201;-71
2022/02/27 09:02:49;;;;;;;1.65;1.50;;;;;;;15.66;49.89;101186.22;1825500;77;21002;-72
2022/02/27 09:05:15;;;;;;;1.85;1.65;;;;;;;15.70;49.84;101187.55;1821855;77;21037;-71
2022/02/27 09:07:44;;;;;;;1.57;1.47;;;;;;;15.75;49.75;101188.44;1818882;77;21048;-71
2022/02/27 09:10:12;;;;;;;1.85;1.50;;;;;;;15.78;49.77;101184.93;1816139;77;21022;-71
2022/02/27 09:12:41;;;;;;;1.87;1.60;;;;;;;15.85;49.74;101179.73;1856328;77;21124;-72
2022/02/27 09:15:09;;;;;;;1.45;1.35;;;;;;;15.90;49.65;101181.41;1855453;77;21063;-73
2022/02/27 09:17:36;;;;;;;2.22;1.90;;;;;;;15.95;49.56;101177.70;1807582;78;21080;-73
2022/02/27 09:20:05;;;;;;;2.12;1.75;;;;;;;16.01;49.63;101182.89;1824752;78;21482;-72
2022/02/27 09:22:31;;;;;;;2.42;1.57;;;;;;;16.07;49.88;101173.70;1844170;77;21037;-72
2022/02/27 09:24:58;;;;;;;1.30;1.20;;;;;;;16.15;50.09;101161.27;1801730;76;22300;-71
2022/02/27 09:27:24;;;;;;;1.40;1.30;;;;;;;16.21;50.03;101178.04;1825921;78;20993;-72
2022/02/27 09:29:51;;;;;;;1.60;1.50;;;;;;;16.30;50.46;101185.03;1826391;78;21029;-71
2022/02/27 09:32:17;;;;;;;1.82;1.50;;;;;;;16.37;50.47;101181.19;1825921;78;21484;-71
2022/02/27 09:34:43;;;;;;;1.40;1.30;;;;;;;16.43;50.52;101177.81;1826049;78;21099;-72
2022/02/27 09:37:10;;;;;;;2.45;1.57;;;;;;;16.50;50.66;101178.81;1825607;78;21442;-71
2022/02/27 09:39:37;;;;;;;1.52;1.42;;;;;;;16.58;50.76;101182.80;1819570;78;21091;-73
2022/02/27 09:42:05;;;;;;;1.98;1.70;;;;;;;16.65;51.10;101174.41;1794528;78;21458;-72
2022/02/27 09:44:41;;;;;;;1.80;1.60;;;;;;;16.73;51.27;101178.91;1793810;79;21029;-73
2022/02/27 09:47:13;;;;;;;1.37;1.25;;;;;;;16.81;51.66;101178.86;1775707;80;21028;-73
2022/02/27 09:49:45;;;;;;;1.50;1.40;;;;;;;16.90;51.84;101183.70;1775697;80;21098;-71
2022/02/27 09:52:16;;;;;;;1.50;1.40;;;;;;;16.98;51.94;101183.70;1793571;79;21013;-71
2022/02/27 09:54:43;;;;;;;1.55;1.45;;;;;;;17.07;51.97;101179.97;1775432;80;21706;-72
2022/02/27 09:57:20;;;;;;;1.47;1.37;;;;;;;17.13;51.94;101167.66;1776512;78;21017;-73
2022/02/27 09:59:47;;;;;;;1.25;1.15;;;;;;;17.26;51.85;101165.75;1793781;80;21306;-72
2022/02/27 10:02:14;;;;;;;1.50;1.40;;;;;;;17.36;51.77;101168.20;1803417;77;21204;-70
2022/02/27 10:04:41;;;;;;;1.47;1.37;;;;;;;17.44;51.53;101172.17;1790512;79;21450;-71
2022/02/27 10:07:18;;;;;;;1.50;1.40;;;;;;;17.55;51.39;101177.66;1783837;80;21104;-73
2022/02/27 10:09:47;;;;;;;1.55;1.40;;;;;;;17.64;51.17;101172.55;1783302;80;21095;-71
2022/02/27 10:12:23;;;;;;;1.32;1.22;;;;;;;17.71;50.64;101172.14;1782465;80;21494;-70
2022/02/27 10:15:03;;;;;;;1.40;1.30;;;;;;;17.77;50.38;101171.92;1768013;80;21730;-71
2022/02/27 10:17:37;;;;;;;1.50;1.30;;;;;;;17.82;50.30;101170.38;1746868;82;21029;-72
2022/02/27 10:20:11;;;;;;;1.50;1.40;;;;;;;17.88;50.13;101172.87;1746714;82;21053;-72
2022/02/27 10:22:40;;;;;;;1.20;1.10;;;;;;;17.95;50.36;101171.66;1747652;82;21042;-72
2022/02/27 10:25:18;;;;;;;1.52;1.37;;;;;;;18.02;50.48;101165.86;1747606;81;21159;-72
2022/02/27 10:27:52;;;;;;;1.70;1.60;;;;;;;18.12;50.53;101158.39;1747686;82;23268;-71
2022/02/27 10:30:29;;;;;;;1.20;1.10;;;;;;;18.21;50.41;101161.30;1747911;82;21585;-72
2022/02/27 10:33:08;;;;;;;1.50;1.40;;;;;;;18.31;50.30;101163.75;1749234;80;21100;-72
2022/02/27 10:35:44;;;;;;;1.30;1.20;;;;;;;18.41;49.96;101162.95;1753228;80;21069;-71
2022/02/27 10:38:45;;;;;;;1.20;1.10;;;;;;;18.52;49.82;101156.26;1779002;80;21049;-73
2022/02/27 10:41:21;;;;;;;1.40;1.30;;;;;;;18.63;49.64;101159.84;1778404;80;21903;-71
2022/02/27 10:43:45;;;;;;;;;;;;;;;18.74;49.48;101153.16;1781275;80;21062;-72
2022/02/27 10:46:12;;;;;;;1.27;1.17;;;;;;;18.86;49.34;101154.36;1778117;80;20179;-71
2022/02/27 10:48:39;;;;;;;1.65;1.55;;;;;;;18.97;49.22;101148.19;1760904;80;21025;-72
2022/02/27 10:51:11;;;;;;;1.50;1.40;;;;;;;19.08;49.11;101150.89;1755298;80;21093;-71
2022/02/27 10:53:40;;;;;;;1.33;1.23;;;;;;;19.19;48.98;101153.09;1778768;80;21149;-71
2022/02/27 10:56:08;;;;;;;1.37;1.27;;;;;;;19.29;48.84;101148.22;1750002;80;21019;-70
2022/02/27 10:58:42;;;;;;;1.40;1.30;;;;;;;19.35;48.79;101142.05;1750005;80;21046;-71
2022/02/27 11:01:22;;;;;;;1.40;1.27;;;;;;;19.40;48.64;101147.72;1747823;80;21700;-70
2022/02/27 11:03:54;;;;;;;1.50;1.40;;;;;;;19.44;48.51;101148.17;1735289;82;21014;-71
2022/02/27 11:06:21;;;;;;;1.25;1.15;;;;;;;19.45;48.43;101138.55;1718567;82;21255;-70
2022/02/27 11:08:47;;;;;;;1.50;1.40;;;;;;;19.48;48.44;101148.11;1772964;80;21521;-70
2022/02/27 11:11:14;;;;;;;1.25;1.15;;;;;;;19.53;48.53;101143.47;1764812;81;21007;-71
2022/02/27 11:13:45;;;;;;;1.20;1.10;;;;;;;19.59;48.60;101135.98;1764810;81;21019;-71
2022/02/27 11:16:12;;;;;;;1.27;1.17;;;;;;;19.62;48.43;101134.23;1771002;81;21054;-70
2022/02/27 11:18:41;;;;;;;1.20;1.10;;;;;;;19.65;48.30;101134.69;1772420;80;21049;-70
2022/02/27 11:21:09;;;;;;;1.92;1.55;;;;;;;19.67;48.12;101133.15;1756176;80;21029;-72
2022/02/27 11:23:36;;;;;;;1.40;1.30;;;;;;;19.67;48.08;101129.10;1752379;80;21124;-72
2022/02/27 11:26:03;;;;;;;1.40;1.10;;;;;;;19.72;48.07;101132.58;1734317;82;21183;-72
2022/02/27 11:28:30;;;;;;;1.10;1.00;;;;;;;19.76;48.09;101133.37;1734416;82;21051;-71